Terminal Aerodrome Forecast
Issued by NWS

Home | Current Version | Previous Version | Graphics & Text | Print | Product List | Glossary On
Versions: 1 2 3 4 5 6 7 8 9 10 11 12 13 14 15 16 17 18 19
000
FTUS43 KBIS 271300 AAA
TAFDIK
TAF AMD
KDIK 271325Z 2713/2812 29008KT P6SM SCT025
      TEMPO 2714/2717 BKN025
     FM271700 34009KT P6SM SCT035
     FM272100 36009KT P6SM SCT060
     FM280200 07006KT P6SM SKC
     FM280600 15005KT P6SM SKC=

USA.gov is the U.S. government's official web portal to all federal, state and local government web resources and services.